sensor_id;sensor_type;location;lat;lon;timestamp;temperature;humidity
21635;DHT22;10979;48.306;9.830;2023-02-27T00:01:58;-2.50;99.90
21635;DHT22;10979;48.306;9.830;2023-02-27T00:04:24;-2.40;99.90
21635;DHT22;10979;48.306;9.830;2023-02-27T00:06:49;-2.50;99.90
21635;DHT22;10979;48.306;9.830;2023-02-27T00:09:15;-2.50;99.90
21635;DHT22;10979;48.306;9.830;2023-02-27T00:11:40;-2.50;99.90
21635;DHT22;10979;48.306;9.830;2023-02-27T00:14:07;-2.40;99.90
21635;DHT22;10979;48.306;9.830;2023-02-27T00:16:33;-2.50;99.90
21635;DHT22;10979;48.306;9.830;2023-02-27T00:18:58;-2.60;99.90
21635;DHT22;10979;48.306;9.830;2023-02-27T00:21:26;-2.60;99.90
21635;DHT22;10979;48.306;9.830;2023-02-27T00:23:52;-2.70;99.90
21635;DHT22;10979;48.306;9.830;2023-02-27T00:26:18;-2.70;99.90
21635;DHT22;10979;48.306;9.830;2023-02-27T00:28:43;-2.80;99.90
21635;DHT22;10979;48.306;9.830;2023-02-27T00:31:09;-2.80;99.90
21635;DHT22;10979;48.306;9.830;2023-02-27T00:33:35;-2.80;99.90
21635;DHT22;10979;48.306;9.830;2023-02-27T00:36:01;-2.80;99.90
21635;DHT22;10979;48.306;9.830;2023-02-27T00:38:27;-2.90;99.90
21635;DHT22;10979;48.306;9.830;2023-02-27T00:40:53;-2.60;99.90
21635;DHT22;10979;48.306;9.830;2023-02-27T00:43:18;-2.50;99.90
21635;DHT22;10979;48.306;9.830;2023-02-27T00:45:44;-2.50;99.90
21635;DHT22;10979;48.306;9.830;2023-02-27T00:48:10;-2.60;99.90
21635;DHT22;10979;48.306;9.830;2023-02-27T00:50:36;-2.60;99.90
21635;DHT22;10979;48.306;9.830;2023-02-27T00:53:02;-2.70;99.90
21635;DHT22;10979;48.306;9.830;2023-02-27T00:55:28;-2.70;99.90
21635;DHT22;10979;48.306;9.830;2023-02-27T00:57:53;-2.80;99.90
21635;DHT22;10979;48.306;9.830;2023-02-27T01:00:19;-2.90;99.90
21635;DHT22;10979;48.306;9.830;2023-02-27T01:02:45;-2.80;99.90
21635;DHT22;10979;48.306;9.830;2023-02-27T01:05:10;-2.80;99.90
21635;DHT22;10979;48.306;9.830;2023-02-27T01:07:36;-2.80;99.90
21635;DHT22;10979;48.306;9.830;2023-02-27T01:10:04;-2.90;99.90
21635;DHT22;10979;48.306;9.830;2023-02-27T01:12:29;-2.80;99.90
21635;DHT22;10979;48.306;9.830;2023-02-27T01:14:55;-2.80;99.90
21635;DHT22;10979;48.306;9.830;2023-02-27T01:17:20;-2.80;99.90
21635;DHT22;10979;48.306;9.830;2023-02-27T01:19:46;-2.80;99.90
21635;DHT22;10979;48.306;9.830;2023-02-27T01:22:12;-2.70;99.90
21635;DHT22;10979;48.306;9.830;2023-02-27T01:24:37;-2.70;99.90
21635;DHT22;10979;48.306;9.830;2023-02-27T01:27:03;-2.80;99.90
21635;DHT22;10979;48.306;9.830;2023-02-27T01:29:28;-2.80;99.90
21635;DHT22;10979;48.306;9.830;2023-02-27T01:31:54;-2.80;99.90
21635;DHT22;10979;48.306;9.830;2023-02-27T01:34:19;-2.80;99.90
21635;DHT22;10979;48.306;9.830;2023-02-27T01:36:45;-2.70;99.90
21635;DHT22;10979;48.306;9.830;2023-02-27T01:39:11;-2.70;99.90
21635;DHT22;10979;48.306;9.830;2023-02-27T01:41:36;-2.60;99.90
21635;DHT22;10979;48.306;9.830;2023-02-27T01:44:05;-2.60;99.90
21635;DHT22;10979;48.306;9.830;2023-02-27T01:46:32;-2.60;99.90
21635;DHT22;10979;48.306;9.830;2023-02-27T01:49:19;-2.60;99.90
21635;DHT22;10979;48.306;9.830;2023-02-27T01:52:18;-2.70;99.90
21635;DHT22;10979;48.306;9.830;2023-02-27T01:54:44;-2.70;99.90
21635;DHT22;10979;48.306;9.830;2023-02-27T01:57:09;-2.80;99.90
21635;DHT22;10979;48.306;9.830;2023-02-27T01:59:39;-2.80;99.90
21635;DHT22;10979;48.306;9.830;2023-02-27T02:02:11;-2.90;99.90
21635;DHT22;10979;48.306;9.830;2023-02-27T02:04:38;-2.90;99.90
21635;DHT22;10979;48.306;9.830;2023-02-27T02:07:07;-3.00;99.90
21635;DHT22;10979;48.306;9.830;2023-02-27T02:09:37;-3.00;99.90
21635;DHT22;10979;48.306;9.830;2023-02-27T02:12:04;-3.20;99.90
21635;DHT22;10979;48.306;9.830;2023-02-27T02:14:30;-3.10;99.90
21635;DHT22;10979;48.306;9.830;2023-02-27T02:23:03;-3.20;99.90
21635;DHT22;10979;48.306;9.830;2023-02-27T02:31:29;-3.20;99.90
21635;DHT22;10979;48.306;9.830;2023-02-27T02:42:39;-3.20;99.90
21635;DHT22;10979;48.306;9.830;2023-02-27T02:50:15;-3.20;99.90
21635;DHT22;10979;48.306;9.830;2023-02-27T02:55:59;-3.20;99.90
21635;DHT22;10979;48.306;9.830;2023-02-27T03:01:04;-3.10;99.90
21635;DHT22;10979;48.306;9.830;2023-02-27T03:03:37;-3.10;99.90
21635;DHT22;10979;48.306;9.830;2023-02-27T03:06:12;-3.10;99.90
21635;DHT22;10979;48.306;9.830;2023-02-27T03:08:45;-3.30;99.90
21635;DHT22;10979;48.306;9.830;2023-02-27T03:11:13;-3.20;99.90
21635;DHT22;10979;48.306;9.830;2023-02-27T03:13:55;-3.20;99.90
21635;DHT22;10979;48.306;9.830;2023-02-27T03:16:32;-3.20;99.90
21635;DHT22;10979;48.306;9.830;2023-02-27T03:19:03;-3.20;99.90
21635;DHT22;10979;48.306;9.830;2023-02-27T03:21:42;-3.20;99.90
21635;DHT22;10979;48.306;9.830;2023-02-27T03:24:17;-3.20;99.90
21635;DHT22;10979;48.306;9.830;2023-02-27T03:26:46;-3.20;99.90
21635;DHT22;10979;48.306;9.830;2023-02-27T03:29:24;-3.30;99.90
21635;DHT22;10979;48.306;9.830;2023-02-27T03:31:57;-3.30;99.90
21635;DHT22;10979;48.306;9.830;2023-02-27T03:34:35;-3.30;99.90
21635;DHT22;10979;48.306;9.830;2023-02-27T03:37:29;-3.30;99.90
21635;DHT22;10979;48.306;9.830;2023-02-27T03:40:34;-3.30;99.90
21635;DHT22;10979;48.306;9.830;2023-02-27T03:43:10;-3.40;99.90
21635;DHT22;10979;48.306;9.830;2023-02-27T03:46:08;-3.30;99.90
21635;DHT22;10979;48.306;9.830;2023-02-27T03:48:35;-3.30;99.90
21635;DHT22;10979;48.306;9.830;2023-02-27T03:51:01;-3.30;99.90
21635;DHT22;10979;48.306;9.830;2023-02-27T03:53:45;-3.30;99.90
21635;DHT22;10979;48.306;9.830;2023-02-27T03:56:15;-3.30;99.90
21635;DHT22;10979;48.306;9.830;2023-02-27T03:58:42;-3.30;99.90
21635;DHT22;10979;48.306;9.830;2023-02-27T04:01:08;-3.40;99.90
21635;DHT22;10979;48.306;9.830;2023-02-27T04:03:38;-3.30;99.90
21635;DHT22;10979;48.306;9.830;2023-02-27T04:06:05;-3.40;99.90
21635;DHT22;10979;48.306;9.830;2023-02-27T04:12:14;-3.40;99.90
21635;DHT22;10979;48.306;9.830;2023-02-27T04:17:30;-3.40;99.90
21635;DHT22;10979;48.306;9.830;2023-02-27T04:20:11;-3.50;99.90
21635;DHT22;10979;48.306;9.830;2023-02-27T04:22:45;-3.60;99.90
21635;DHT22;10979;48.306;9.830;2023-02-27T04:25:30;-3.60;99.90
21635;DHT22;10979;48.306;9.830;2023-02-27T04:28:06;-3.50;99.90
21635;DHT22;10979;48.306;9.830;2023-02-27T04:30:59;-3.50;99.90
21635;DHT22;10979;48.306;9.830;2023-02-27T04:33:40;-3.40;99.90
21635;DHT22;10979;48.306;9.830;2023-02-27T04:36:37;-3.50;99.90
21635;DHT22;10979;48.306;9.830;2023-02-27T04:39:10;-3.60;99.90
21635;DHT22;10979;48.306;9.830;2023-02-27T04:44:06;-3.50;99.90
21635;DHT22;10979;48.306;9.830;2023-02-27T04:46:33;-3.50;99.90
21635;DHT22;10979;48.306;9.830;2023-02-27T04:49:10;-3.40;99.90
21635;DHT22;10979;48.306;9.830;2023-02-27T04:52:00;-3.60;99.90
21635;DHT22;10979;48.306;9.830;2023-02-27T04:54:31;-3.50;99.90
21635;DHT22;10979;48.306;9.830;2023-02-27T04:57:03;-3.50;99.90
21635;DHT22;10979;48.306;9.830;2023-02-27T04:59:39;-3.40;99.90
21635;DHT22;10979;48.306;9.830;2023-02-27T05:02:12;-3.50;99.90
21635;DHT22;10979;48.306;9.830;2023-02-27T05:04:41;-3.40;99.90
21635;DHT22;10979;48.306;9.830;2023-02-27T05:07:12;-3.50;99.90
21635;DHT22;10979;48.306;9.830;2023-02-27T05:10:03;-3.50;99.90
21635;DHT22;10979;48.306;9.830;2023-02-27T05:13:14;-3.50;99.90
21635;DHT22;10979;48.306;9.830;2023-02-27T05:15:58;-3.50;99.90
21635;DHT22;10979;48.306;9.830;2023-02-27T05:18:27;-3.50;99.90
21635;DHT22;10979;48.306;9.830;2023-02-27T05:21:20;-3.50;99.90
21635;DHT22;10979;48.306;9.830;2023-02-27T05:23:54;-3.50;99.90
21635;DHT22;10979;48.306;9.830;2023-02-27T05:28:57;-3.50;99.90
21635;DHT22;10979;48.306;9.830;2023-02-27T05:31:33;-3.60;99.90
21635;DHT22;10979;48.306;9.830;2023-02-27T05:34:11;-3.50;99.90
21635;DHT22;10979;48.306;9.830;2023-02-27T05:37:47;-3.60;99.90
21635;DHT22;10979;48.306;9.830;2023-02-27T05:39:53;-3.60;99.90
21635;DHT22;10979;48.306;9.830;2023-02-27T05:42:30;-3.60;99.90
21635;DHT22;10979;48.306;9.830;2023-02-27T05:45:03;-3.60;99.90
21635;DHT22;10979;48.306;9.830;2023-02-27T05:47:32;-3.60;99.90
21635;DHT22;10979;48.306;9.830;2023-02-27T05:50:09;-3.60;99.90
21635;DHT22;10979;48.306;9.830;2023-02-27T05:52:37;-3.60;99.90
21635;DHT22;10979;48.306;9.830;2023-02-27T05:55:10;-3.60;99.90
21635;DHT22;10979;48.306;9.830;2023-02-27T05:57:41;-3.60;99.90
21635;DHT22;10979;48.306;9.830;2023-02-27T06:02:33;-3.60;99.90
21635;DHT22;10979;48.306;9.830;2023-02-27T06:04:59;-3.70;99.90
21635;DHT22;10979;48.306;9.830;2023-02-27T06:07:25;-3.60;99.90
21635;DHT22;10979;48.306;9.830;2023-02-27T06:09:50;-3.70;99.90
21635;DHT22;10979;48.306;9.830;2023-02-27T06:12:16;-3.60;99.90
21635;DHT22;10979;48.306;9.830;2023-02-27T06:14:41;-3.70;99.90
21635;DHT22;10979;48.306;9.830;2023-02-27T06:17:07;-3.70;99.90
21635;DHT22;10979;48.306;9.830;2023-02-27T06:19:33;-3.70;99.90
21635;DHT22;10979;48.306;9.830;2023-02-27T06:21:58;-3.60;99.90
21635;DHT22;10979;48.306;9.830;2023-02-27T06:24:24;-3.60;99.90
21635;DHT22;10979;48.306;9.830;2023-02-27T06:26:50;-3.60;99.90
21635;DHT22;10979;48.306;9.830;2023-02-27T06:29:16;-3.60;99.90
21635;DHT22;10979;48.306;9.830;2023-02-27T06:31:42;-3.60;99.90
21635;DHT22;10979;48.306;9.830;2023-02-27T06:34:08;-3.50;99.90
21635;DHT22;10979;48.306;9.830;2023-02-27T06:36:33;-3.60;99.90
21635;DHT22;10979;48.306;9.830;2023-02-27T06:38:59;-3.50;99.90
21635;DHT22;10979;48.306;9.830;2023-02-27T06:41:24;-3.50;99.90
21635;DHT22;10979;48.306;9.830;2023-02-27T06:43:50;-3.40;99.90
21635;DHT22;10979;48.306;9.830;2023-02-27T06:46:16;-3.40;99.90
21635;DHT22;10979;48.306;9.830;2023-02-27T06:48:41;-3.40;99.90
21635;DHT22;10979;48.306;9.830;2023-02-27T06:51:07;-3.40;99.90
21635;DHT22;10979;48.306;9.830;2023-02-27T06:53:33;-3.30;99.90
21635;DHT22;10979;48.306;9.830;2023-02-27T06:55:58;-3.20;99.90
21635;DHT22;10979;48.306;9.830;2023-02-27T06:58:24;-3.30;99.90
21635;DHT22;10979;48.306;9.830;2023-02-27T07:00:49;-3.30;99.90
21635;DHT22;10979;48.306;9.830;2023-02-27T07:03:15;-3.20;99.90
21635;DHT22;10979;48.306;9.830;2023-02-27T07:05:41;-3.20;99.90
21635;DHT22;10979;48.306;9.830;2023-02-27T07:08:07;-3.10;99.90
21635;DHT22;10979;48.306;9.830;2023-02-27T07:10:33;-3.10;99.90
21635;DHT22;10979;48.306;9.830;2023-02-27T07:12:58;-3.10;99.90
21635;DHT22;10979;48.306;9.830;2023-02-27T07:15:24;-3.00;99.90
21635;DHT22;10979;48.306;9.830;2023-02-27T07:17:49;-2.90;99.90
21635;DHT22;10979;48.306;9.830;2023-02-27T07:20:15;-2.90;99.90
21635;DHT22;10979;48.306;9.830;2023-02-27T07:22:41;-2.80;99.90
21635;DHT22;10979;48.306;9.830;2023-02-27T07:25:07;-2.70;99.90
21635;DHT22;10979;48.306;9.830;2023-02-27T07:27:34;-2.60;99.90
21635;DHT22;10979;48.306;9.830;2023-02-27T07:29:59;-2.20;99.90
21635;DHT22;10979;48.306;9.830;2023-02-27T07:32:26;-1.90;99.90
21635;DHT22;10979;48.306;9.830;2023-02-27T07:34:51;-1.40;99.90
21635;DHT22;10979;48.306;9.830;2023-02-27T07:37:17;-2.10;99.90
21635;DHT22;10979;48.306;9.830;2023-02-27T07:39:43;-1.70;99.90
21635;DHT22;10979;48.306;9.830;2023-02-27T07:42:09;-1.70;99.90
21635;DHT22;10979;48.306;9.830;2023-02-27T07:44:35;-1.40;99.90
21635;DHT22;10979;48.306;9.830;2023-02-27T07:47:00;-1.40;99.90
21635;DHT22;10979;48.306;9.830;2023-02-27T07:49:26;-1.70;99.90
21635;DHT22;10979;48.306;9.830;2023-02-27T07:51:51;-1.40;99.90
21635;DHT22;10979;48.306;9.830;2023-02-27T07:54:17;-1.50;99.90
21635;DHT22;10979;48.306;9.830;2023-02-27T07:56:43;-1.50;99.90
21635;DHT22;10979;48.306;9.830;2023-02-27T07:59:08;-1.80;99.90
21635;DHT22;10979;48.306;9.830;2023-02-27T08:01:34;-1.40;99.90
21635;DHT22;10979;48.306;9.830;2023-02-27T08:03:59;-1.40;99.90
21635;DHT22;10979;48.306;9.830;2023-02-27T08:06:25;-1.60;99.90
21635;DHT22;10979;48.306;9.830;2023-02-27T08:08:51;-1.30;99.90
21635;DHT22;10979;48.306;9.830;2023-02-27T08:11:17;-1.00;99.90
21635;DHT22;10979;48.306;9.830;2023-02-27T08:13:43;-0.90;99.90
21635;DHT22;10979;48.306;9.830;2023-02-27T08:16:10;-1.00;99.90
21635;DHT22;10979;48.306;9.830;2023-02-27T08:18:35;-0.70;99.90
21635;DHT22;10979;48.306;9.830;2023-02-27T08:21:01;-0.60;99.90
21635;DHT22;10979;48.306;9.830;2023-02-27T08:23:29;-0.80;99.90
21635;DHT22;10979;48.306;9.830;2023-02-27T08:25:55;-0.70;99.90
21635;DHT22;10979;48.306;9.830;2023-02-27T08:28:23;-0.50;99.90
21635;DHT22;10979;48.306;9.830;2023-02-27T08:30:48;-0.60;99.90
21635;DHT22;10979;48.306;9.830;2023-02-27T08:33:14;-0.50;99.90
21635;DHT22;10979;48.306;9.830;2023-02-27T08:35:39;-0.10;99.90
21635;DHT22;10979;48.306;9.830;2023-02-27T08:38:05;-0.10;99.90
21635;DHT22;10979;48.306;9.830;2023-02-27T08:40:30;0.40;99.90
21635;DHT22;10979;48.306;9.830;2023-02-27T08:42:56;0.20;99.90
21635;DHT22;10979;48.306;9.830;2023-02-27T08:45:21;0.40;99.90
21635;DHT22;10979;48.306;9.830;2023-02-27T08:47:47;0.50;99.90
21635;DHT22;10979;48.306;9.830;2023-02-27T08:50:12;0.60;99.90
21635;DHT22;10979;48.306;9.830;2023-02-27T08:52:38;0.40;99.90
21635;DHT22;10979;48.306;9.830;2023-02-27T08:55:04;0.60;99.90
21635;DHT22;10979;48.306;9.830;2023-02-27T08:57:30;0.40;99.90
21635;DHT22;10979;48.306;9.830;2023-02-27T08:59:55;0.50;99.90
21635;DHT22;10979;48.306;9.830;2023-02-27T09:02:21;0.70;99.90
21635;DHT22;10979;48.306;9.830;2023-02-27T09:04:51;0.90;99.90
21635;DHT22;10979;48.306;9.830;2023-02-27T09:07:17;1.10;99.90
21635;DHT22;10979;48.306;9.830;2023-02-27T09:09:42;0.80;99.90
21635;DHT22;10979;48.306;9.830;2023-02-27T09:12:08;1.00;99.90
21635;DHT22;10979;48.306;9.830;2023-02-27T09:14:34;0.60;99.90
21635;DHT22;10979;48.306;9.830;2023-02-27T09:16:59;0.80;99.90
21635;DHT22;10979;48.306;9.830;2023-02-27T09:19:25;1.20;99.90
21635;DHT22;10979;48.306;9.830;2023-02-27T09:21:50;0.80;99.90
21635;DHT22;10979;48.306;9.830;2023-02-27T09:24:16;0.40;99.90
21635;DHT22;10979;48.306;9.830;2023-02-27T09:26:41;0.70;99.90
21635;DHT22;10979;48.306;9.830;2023-02-27T09:29:07;0.90;99.90
21635;DHT22;10979;48.306;9.830;2023-02-27T09:31:33;0.90;99.90
21635;DHT22;10979;48.306;9.830;2023-02-27T09:33:59;0.90;99.90
21635;DHT22;10979;48.306;9.830;2023-02-27T09:36:26;0.80;99.90
21635;DHT22;10979;48.306;9.830;2023-02-27T09:38:52;0.30;99.90
21635;DHT22;10979;48.306;9.830;2023-02-27T09:41:36;0.20;99.90
21635;DHT22;10979;48.306;9.830;2023-02-27T09:44:34;0.60;99.90
21635;DHT22;10979;48.306;9.830;2023-02-27T09:47:03;0.20;99.90
21635;DHT22;10979;48.306;9.830;2023-02-27T09:49:34;0.30;99.90
21635;DHT22;10979;48.306;9.830;2023-02-27T09:52:03;0.50;99.90
21635;DHT22;10979;48.306;9.830;2023-02-27T09:54:32;0.40;99.90
21635;DHT22;10979;48.306;9.830;2023-02-27T09:57:02;0.50;99.90
21635;DHT22;10979;48.306;9.830;2023-02-27T10:00:00;0.00;99.90
21635;DHT22;10979;48.306;9.830;2023-02-27T10:02:54;-0.10;99.90
21635;DHT22;10979;48.306;9.830;2023-02-27T10:13:56;-0.30;99.90
21635;DHT22;10979;48.306;9.830;2023-02-27T10:16:25;-0.40;99.90
21635;DHT22;10979;48.306;9.830;2023-02-27T10:19:15;-0.30;99.90
21635;DHT22;10979;48.306;9.830;2023-02-27T10:21:48;-0.30;99.90
21635;DHT22;10979;48.306;9.830;2023-02-27T10:24:34;-0.20;99.90
21635;DHT22;10979;48.306;9.830;2023-02-27T10:27:05;-0.20;99.90
21635;DHT22;10979;48.306;9.830;2023-02-27T10:29:33;-0.20;99.90
21635;DHT22;10979;48.306;9.830;2023-02-27T10:32:11;-0.20;99.90
21635;DHT22;10979;48.306;9.830;2023-02-27T10:34:39;-0.20;99.90
21635;DHT22;10979;48.306;9.830;2023-02-27T10:37:05;-0.20;99.90
21635;DHT22;10979;48.306;9.830;2023-02-27T10:39:47;-0.20;99.90
21635;DHT22;10979;48.306;9.830;2023-02-27T10:42:13;-0.10;99.90
21635;DHT22;10979;48.306;9.830;2023-02-27T10:44:40;-0.20;99.90
21635;DHT22;10979;48.306;9.830;2023-02-27T10:47:06;-0.10;99.90
21635;DHT22;10979;48.306;9.830;2023-02-27T10:49:32;-0.10;99.90
21635;DHT22;10979;48.306;9.830;2023-02-27T10:52:09;-0.20;99.90
21635;DHT22;10979;48.306;9.830;2023-02-27T10:54:35;-0.10;99.90
21635;DHT22;10979;48.306;9.830;2023-02-27T10:57:03;-0.10;99.90
21635;DHT22;10979;48.306;9.830;2023-02-27T10:59:38;-0.20;99.90
21635;DHT22;10979;48.306;9.830;2023-02-27T11:02:35;-0.10;99.90
21635;DHT22;10979;48.306;9.830;2023-02-27T11:05:03;0.00;99.90
21635;DHT22;10979;48.306;9.830;2023-02-27T11:12:34;-0.10;99.90
21635;DHT22;10979;48.306;9.830;2023-02-27T11:15:19;0.00;99.90
21635;DHT22;10979;48.306;9.830;2023-02-27T11:17:46;0.00;99.90
21635;DHT22;10979;48.306;9.830;2023-02-27T11:20:33;0.00;99.90
21635;DHT22;10979;48.306;9.830;2023-02-27T11:23:21;0.00;99.90
21635;DHT22;10979;48.306;9.830;2023-02-27T11:25:47;0.00;99.90
21635;DHT22;10979;48.306;9.830;2023-02-27T11:28:24;-0.10;99.90
21635;DHT22;10979;48.306;9.830;2023-02-27T11:31:13;-0.10;99.90
21635;DHT22;10979;48.306;9.830;2023-02-27T11:33:49;0.00;99.90
21635;DHT22;10979;48.306;9.830;2023-02-27T11:36:16;0.10;99.90
21635;DHT22;10979;48.306;9.830;2023-02-27T11:38:50;0.10;99.90
21635;DHT22;10979;48.306;9.830;2023-02-27T11:41:17;0.10;99.90
21635;DHT22;10979;48.306;9.830;2023-02-27T11:43:51;0.10;99.90
21635;DHT22;10979;48.306;9.830;2023-02-27T11:46:22;0.10;99.90
21635;DHT22;10979;48.306;9.830;2023-02-27T11:48:51;0.20;99.90
21635;DHT22;10979;48.306;9.830;2023-02-27T11:51:32;0.30;99.90
21635;DHT22;10979;48.306;9.830;2023-02-27T11:57:00;0.40;99.90
21635;DHT22;10979;48.306;9.830;2023-02-27T12:02:42;0.40;99.90
21635;DHT22;10979;48.306;9.830;2023-02-27T12:08:06;0.40;99.90
21635;DHT22;10979;48.306;9.830;2023-02-27T12:10:52;0.50;99.90
21635;DHT22;10979;48.306;9.830;2023-02-27T12:13:26;0.40;99.90
21635;DHT22;10979;48.306;9.830;2023-02-27T12:15:57;0.30;99.90
21635;DHT22;10979;48.306;9.830;2023-02-27T12:18:30;0.20;99.90
21635;DHT22;10979;48.306;9.830;2023-02-27T12:21:02;0.20;99.90
21635;DHT22;10979;48.306;9.830;2023-02-27T12:23:42;0.10;99.90
21635;DHT22;10979;48.306;9.830;2023-02-27T12:26:29;0.10;99.90
21635;DHT22;10979;48.306;9.830;2023-02-27T12:29:02;0.10;99.90
21635;DHT22;10979;48.306;9.830;2023-02-27T12:36:40;0.40;99.90
21635;DHT22;10979;48.306;9.830;2023-02-27T12:39:14;0.40;99.90
21635;DHT22;10979;48.306;9.830;2023-02-27T12:55:21;0.50;99.90
21635;DHT22;10979;48.306;9.830;2023-02-27T12:58:11;0.30;99.90
21635;DHT22;10979;48.306;9.830;2023-02-27T13:00:57;0.50;99.90
21635;DHT22;10979;48.306;9.830;2023-02-27T13:03:57;0.60;99.90
21635;DHT22;10979;48.306;9.830;2023-02-27T13:09:14;0.80;99.90
21635;DHT22;10979;48.306;9.830;2023-02-27T13:12:03;1.30;99.90
21635;DHT22;10979;48.306;9.830;2023-02-27T13:14:46;1.40;99.90
21635;DHT22;10979;48.306;9.830;2023-02-27T13:17:15;1.20;99.90
21635;DHT22;10979;48.306;9.830;2023-02-27T13:25:17;1.00;99.90
21635;DHT22;10979;48.306;9.830;2023-02-27T13:27:51;1.00;99.90
21635;DHT22;10979;48.306;9.830;2023-02-27T13:30:33;1.20;99.90
21635;DHT22;10979;48.306;9.830;2023-02-27T13:38:44;0.70;99.90
21635;DHT22;10979;48.306;9.830;2023-02-27T13:43:56;0.40;99.90
21635;DHT22;10979;48.306;9.830;2023-02-27T13:46:30;0.40;99.90
21635;DHT22;10979;48.306;9.830;2023-02-27T13:56:32;0.50;99.90
21635;DHT22;10979;48.306;9.830;2023-02-27T13:59:10;0.40;99.90
21635;DHT22;10979;48.306;9.830;2023-02-27T14:01:36;0.50;99.90
21635;DHT22;10979;48.306;9.830;2023-02-27T14:04:05;0.40;99.90
21635;DHT22;10979;48.306;9.830;2023-02-27T14:06:31;0.40;99.90
21635;DHT22;10979;48.306;9.830;2023-02-27T14:08:58;0.40;99.90
21635;DHT22;10979;48.306;9.830;2023-02-27T14:11:30;0.40;99.90
21635;DHT22;10979;48.306;9.830;2023-02-27T14:14:01;0.30;99.90
21635;DHT22;10979;48.306;9.830;2023-02-27T14:19:03;0.30;99.90
21635;DHT22;10979;48.306;9.830;2023-02-27T14:21:54;0.30;99.90
21635;DHT22;10979;48.306;9.830;2023-02-27T14:24:39;0.40;99.90
21635;DHT22;10979;48.306;9.830;2023-02-27T14:27:26;0.40;99.90
21635;DHT22;10979;48.306;9.830;2023-02-27T14:29:55;0.50;99.90
21635;DHT22;10979;48.306;9.830;2023-02-27T14:32:24;0.50;99.90
21635;DHT22;10979;48.306;9.830;2023-02-27T14:34:52;0.40;99.90
21635;DHT22;10979;48.306;9.830;2023-02-27T14:37:20;0.50;99.90
21635;DHT22;10979;48.306;9.830;2023-02-27T14:39:49;0.40;99.90
21635;DHT22;10979;48.306;9.830;2023-02-27T14:44:50;0.50;99.90
21635;DHT22;10979;48.306;9.830;2023-02-27T14:49:48;0.40;99.90
21635;DHT22;10979;48.306;9.830;2023-02-27T14:52:25;0.50;99.90
21635;DHT22;10979;48.306;9.830;2023-02-27T14:54:51;0.50;99.90
21635;DHT22;10979;48.306;9.830;2023-02-27T14:57:20;0.50;99.90
21635;DHT22;10979;48.306;9.830;2023-02-27T14:59:49;0.50;99.90
21635;DHT22;10979;48.306;9.830;2023-02-27T15:02:28;0.40;99.90
21635;DHT22;10979;48.306;9.830;2023-02-27T15:05:11;0.30;99.90
21635;DHT22;10979;48.306;9.830;2023-02-27T15:07:40;0.30;99.90
21635;DHT22;10979;48.306;9.830;2023-02-27T15:10:09;0.30;99.90
21635;DHT22;10979;48.306;9.830;2023-02-27T15:12:41;0.30;99.90
21635;DHT22;10979;48.306;9.830;2023-02-27T15:15:09;0.20;99.90
21635;DHT22;10979;48.306;9.830;2023-02-27T15:17:42;0.20;99.90
21635;DHT22;10979;48.306;9.830;2023-02-27T15:22:54;0.10;99.90
21635;DHT22;10979;48.306;9.830;2023-02-27T15:25:32;0.10;99.90
21635;DHT22;10979;48.306;9.830;2023-02-27T15:28:04;0.10;99.90
21635;DHT22;10979;48.306;9.830;2023-02-27T15:30:30;0.10;99.90
21635;DHT22;10979;48.306;9.830;2023-02-27T15:32:57;0.10;99.90
21635;DHT22;10979;48.306;9.830;2023-02-27T15:35:31;0.10;99.90
21635;DHT22;10979;48.306;9.830;2023-02-27T15:37:59;0.10;99.90
21635;DHT22;10979;48.306;9.830;2023-02-27T15:40:29;0.10;99.90
21635;DHT22;10979;48.306;9.830;2023-02-27T15:42:55;0.00;99.90
21635;DHT22;10979;48.306;9.830;2023-02-27T15:45:24;0.00;99.90
21635;DHT22;10979;48.306;9.830;2023-02-27T15:47:51;0.00;99.90
21635;DHT22;10979;48.306;9.830;2023-02-27T15:52:51;-0.10;99.90
21635;DHT22;10979;48.306;9.830;2023-02-27T15:55:26;-0.10;99.90
21635;DHT22;10979;48.306;9.830;2023-02-27T15:57:52;-0.10;99.90
21635;DHT22;10979;48.306;9.830;2023-02-27T16:00:19;-0.10;99.90
21635;DHT22;10979;48.306;9.830;2023-02-27T16:02:48;-0.10;99.90
21635;DHT22;10979;48.306;9.830;2023-02-27T16:05:16;-0.10;99.90
21635;DHT22;10979;48.306;9.830;2023-02-27T16:07:42;-0.20;99.90
21635;DHT22;10979;48.306;9.830;2023-02-27T16:10:35;-0.20;99.90
21635;DHT22;10979;48.306;9.830;2023-02-27T16:13:21;-0.20;99.90
21635;DHT22;10979;48.306;9.830;2023-02-27T16:16:06;-0.20;99.90
21635;DHT22;10979;48.306;9.830;2023-02-27T16:18:51;-0.20;99.90
21635;DHT22;10979;48.306;9.830;2023-02-27T16:21:22;-0.20;99.90
21635;DHT22;10979;48.306;9.830;2023-02-27T16:23:49;-0.20;99.90
21635;DHT22;10979;48.306;9.830;2023-02-27T16:26:28;-0.20;99.90
21635;DHT22;10979;48.306;9.830;2023-02-27T16:29:19;-0.20;99.90
21635;DHT22;10979;48.306;9.830;2023-02-27T16:31:52;-0.20;99.90
21635;DHT22;10979;48.306;9.830;2023-02-27T16:34:36;-0.20;99.90
21635;DHT22;10979;48.306;9.830;2023-02-27T16:37:37;-0.20;99.90
21635;DHT22;10979;48.306;9.830;2023-02-27T16:42:45;-0.20;99.90
21635;DHT22;10979;48.306;9.830;2023-02-27T16:45:16;-0.20;99.90
21635;DHT22;10979;48.306;9.830;2023-02-27T16:47:42;-0.30;99.90
21635;DHT22;10979;48.306;9.830;2023-02-27T16:52:51;-0.40;99.90
21635;DHT22;10979;48.306;9.830;2023-02-27T16:55:16;-0.50;99.90
21635;DHT22;10979;48.306;9.830;2023-02-27T16:57:42;-0.50;99.90
21635;DHT22;10979;48.306;9.830;2023-02-27T17:00:10;-0.60;99.90
21635;DHT22;10979;48.306;9.830;2023-02-27T17:02:37;-0.60;99.90
21635;DHT22;10979;48.306;9.830;2023-02-27T17:05:03;-0.60;99.90
21635;DHT22;10979;48.306;9.830;2023-02-27T17:07:29;-0.70;99.90
21635;DHT22;10979;48.306;9.830;2023-02-27T17:09:55;-0.70;99.90
21635;DHT22;10979;48.306;9.830;2023-02-27T17:12:20;-0.70;99.90
21635;DHT22;10979;48.306;9.830;2023-02-27T17:14:46;-0.70;99.90
21635;DHT22;10979;48.306;9.830;2023-02-27T17:17:12;-0.70;99.90
21635;DHT22;10979;48.306;9.830;2023-02-27T17:19:38;-0.60;99.90
21635;DHT22;10979;48.306;9.830;2023-02-27T17:22:03;-0.60;99.90
21635;DHT22;10979;48.306;9.830;2023-02-27T17:24:29;-0.60;99.90
21635;DHT22;10979;48.306;9.830;2023-02-27T17:26:55;-0.60;99.90
21635;DHT22;10979;48.306;9.830;2023-02-27T17:29:21;-0.70;99.90
21635;DHT22;10979;48.306;9.830;2023-02-27T17:31:47;-0.70;99.90
21635;DHT22;10979;48.306;9.830;2023-02-27T17:34:13;-0.70;99.90
21635;DHT22;10979;48.306;9.830;2023-02-27T17:36:39;-0.70;99.90
21635;DHT22;10979;48.306;9.830;2023-02-27T17:39:05;-0.70;99.90
21635;DHT22;10979;48.306;9.830;2023-02-27T17:41:32;-0.70;99.90
21635;DHT22;10979;48.306;9.830;2023-02-27T17:43:58;-0.70;99.90
21635;DHT22;10979;48.306;9.830;2023-02-27T17:46:27;-0.70;99.90
21635;DHT22;10979;48.306;9.830;2023-02-27T17:48:52;-0.70;99.90
21635;DHT22;10979;48.306;9.830;2023-02-27T17:51:20;-0.80;99.90
21635;DHT22;10979;48.306;9.830;2023-02-27T17:53:46;-0.80;99.90
21635;DHT22;10979;48.306;9.830;2023-02-27T17:56:12;-0.80;99.90
21635;DHT22;10979;48.306;9.830;2023-02-27T17:58:38;-0.80;99.90
21635;DHT22;10979;48.306;9.830;2023-02-27T18:01:09;-0.80;99.90
21635;DHT22;10979;48.306;9.830;2023-02-27T18:03:36;-0.80;99.90
21635;DHT22;10979;48.306;9.830;2023-02-27T18:06:03;-0.90;99.90
21635;DHT22;10979;48.306;9.830;2023-02-27T18:08:29;-0.90;99.90